sensor_id;sensor_type;location;lat;lon;timestamp;pressure;altitude;pressure_sealevel;temperature
12875;BMP180;6505;51.114;13.128;2023-03-12T00:01:16;99117.00;;;8.90
12875;BMP180;6505;51.114;13.128;2023-03-12T00:03:45;99108.00;;;8.90
12875;BMP180;6505;51.114;13.128;2023-03-12T00:06:14;99113.00;;;8.90
12875;BMP180;6505;51.114;13.128;2023-03-12T00:08:42;99113.00;;;8.90
12875;BMP180;6505;51.114;13.128;2023-03-12T00:11:12;99101.00;;;8.90
12875;BMP180;6505;51.114;13.128;2023-03-12T00:13:41;99110.00;;;8.90
12875;BMP180;6505;51.114;13.128;2023-03-12T00:16:14;99111.00;;;8.90
12875;BMP180;6505;51.114;13.128;2023-03-12T00:18:43;99114.00;;;8.90
12875;BMP180;6505;51.114;13.128;2023-03-12T00:21:14;99108.00;;;8.90
12875;BMP180;6505;51.114;13.128;2023-03-12T00:23:43;99118.00;;;8.90
12875;BMP180;6505;51.114;13.128;2023-03-12T00:26:12;99116.00;;;8.90
12875;BMP180;6505;51.114;13.128;2023-03-12T00:28:41;99120.00;;;8.70
12875;BMP180;6505;51.114;13.128;2023-03-12T00:31:16;99117.00;;;8.80
12875;BMP180;6505;51.114;13.128;2023-03-12T00:33:46;99075.00;;;8.90
12875;BMP180;6505;51.114;13.128;2023-03-12T00:36:15;99118.00;;;8.90
12875;BMP180;6505;51.114;13.128;2023-03-12T00:38:43;99113.00;;;8.80
12875;BMP180;6505;51.114;13.128;2023-03-12T00:41:12;99119.00;;;8.90
12875;BMP180;6505;51.114;13.128;2023-03-12T00:43:39;99114.00;;;8.80
12875;BMP180;6505;51.114;13.128;2023-03-12T00:46:07;99108.00;;;8.80
12875;BMP180;6505;51.114;13.128;2023-03-12T00:48:37;99108.00;;;8.80
12875;BMP180;6505;51.114;13.128;2023-03-12T00:51:05;99112.00;;;8.80
12875;BMP180;6505;51.114;13.128;2023-03-12T00:53:34;99081.00;;;8.80
12875;BMP180;6505;51.114;13.128;2023-03-12T00:56:02;99113.00;;;8.80
12875;BMP180;6505;51.114;13.128;2023-03-12T00:58:31;99121.00;;;8.80
12875;BMP180;6505;51.114;13.128;2023-03-12T01:00:59;99118.00;;;8.80
12875;BMP180;6505;51.114;13.128;2023-03-12T01:03:27;99120.00;;;8.80
12875;BMP180;6505;51.114;13.128;2023-03-12T01:05:56;99122.00;;;8.80
12875;BMP180;6505;51.114;13.128;2023-03-12T01:08:24;99137.00;;;8.80
12875;BMP180;6505;51.114;13.128;2023-03-12T01:10:52;99069.00;;;8.80
12875;BMP180;6505;51.114;13.128;2023-03-12T01:13:21;99110.00;;;8.80
12875;BMP180;6505;51.114;13.128;2023-03-12T01:15:49;99125.00;;;8.70
12875;BMP180;6505;51.114;13.128;2023-03-12T01:18:17;99118.00;;;8.70
12875;BMP180;6505;51.114;13.128;2023-03-12T01:20:45;99121.00;;;8.70
12875;BMP180;6505;51.114;13.128;2023-03-12T01:23:15;99100.00;;;8.70
12875;BMP180;6505;51.114;13.128;2023-03-12T01:25:43;99124.00;;;8.70
12875;BMP180;6505;51.114;13.128;2023-03-12T01:28:10;99128.00;;;8.70
12875;BMP180;6505;51.114;13.128;2023-03-12T01:30:38;99133.00;;;8.70
12875;BMP180;6505;51.114;13.128;2023-03-12T01:33:06;99127.00;;;8.70
12875;BMP180;6505;51.114;13.128;2023-03-12T01:35:36;99126.00;;;8.70
12875;BMP180;6505;51.114;13.128;2023-03-12T01:38:05;99128.00;;;8.70
12875;BMP180;6505;51.114;13.128;2023-03-12T01:40:35;99127.00;;;8.70
12875;BMP180;6505;51.114;13.128;2023-03-12T01:43:24;99126.00;;;8.60
12875;BMP180;6505;51.114;13.128;2023-03-12T01:46:22;99130.00;;;8.60
12875;BMP180;6505;51.114;13.128;2023-03-12T01:48:57;99126.00;;;8.60
12875;BMP180;6505;51.114;13.128;2023-03-12T01:51:32;99069.00;;;8.60
12875;BMP180;6505;51.114;13.128;2023-03-12T01:54:07;99129.00;;;8.60
12875;BMP180;6505;51.114;13.128;2023-03-12T01:56:38;99128.00;;;8.60
12875;BMP180;6505;51.114;13.128;2023-03-12T01:59:12;99130.00;;;8.60
12875;BMP180;6505;51.114;13.128;2023-03-12T02:01:42;99119.00;;;8.60
12875;BMP180;6505;51.114;13.128;2023-03-12T02:04:11;99071.00;;;8.60
12875;BMP180;6505;51.114;13.128;2023-03-12T02:06:45;99120.00;;;8.60
12875;BMP180;6505;51.114;13.128;2023-03-12T02:09:17;99125.00;;;8.60
12875;BMP180;6505;51.114;13.128;2023-03-12T02:11:49;99116.00;;;8.50
12875;BMP180;6505;51.114;13.128;2023-03-12T02:14:19;99131.00;;;8.60
12875;BMP180;6505;51.114;13.128;2023-03-12T02:16:46;99133.00;;;8.60
12875;BMP180;6505;51.114;13.128;2023-03-12T02:19:24;99133.00;;;8.50
12875;BMP180;6505;51.114;13.128;2023-03-12T02:21:55;99130.00;;;8.60
12875;BMP180;6505;51.114;13.128;2023-03-12T02:24:33;99075.00;;;8.50
12875;BMP180;6505;51.114;13.128;2023-03-12T02:27:05;99137.00;;;8.50
12875;BMP180;6505;51.114;13.128;2023-03-12T02:29:37;99142.00;;;8.50
12875;BMP180;6505;51.114;13.128;2023-03-12T02:32:17;99119.00;;;8.50
12875;BMP180;6505;51.114;13.128;2023-03-12T02:34:46;99136.00;;;8.50
12875;BMP180;6505;51.114;13.128;2023-03-12T02:37:17;99139.00;;;8.50
12875;BMP180;6505;51.114;13.128;2023-03-12T02:39:54;99138.00;;;8.50
12875;BMP180;6505;51.114;13.128;2023-03-12T02:42:26;99139.00;;;8.50
12875;BMP180;6505;51.114;13.128;2023-03-12T02:44:54;99138.00;;;8.50
12875;BMP180;6505;51.114;13.128;2023-03-12T02:47:22;99126.00;;;8.50
12875;BMP180;6505;51.114;13.128;2023-03-12T02:49:51;99130.00;;;8.50
12875;BMP180;6505;51.114;13.128;2023-03-12T02:52:19;99140.00;;;8.30
12875;BMP180;6505;51.114;13.128;2023-03-12T02:54:47;99147.00;;;8.50
12875;BMP180;6505;51.114;13.128;2023-03-12T02:57:16;99085.00;;;8.50
12875;BMP180;6505;51.114;13.128;2023-03-12T02:59:46;99128.00;;;8.40
12875;BMP180;6505;51.114;13.128;2023-03-12T03:02:14;99143.00;;;8.50
12875;BMP180;6505;51.114;13.128;2023-03-12T03:04:42;99142.00;;;8.50
12875;BMP180;6505;51.114;13.128;2023-03-12T03:07:10;99143.00;;;8.50
12875;BMP180;6505;51.114;13.128;2023-03-12T03:09:38;99137.00;;;8.40
12875;BMP180;6505;51.114;13.128;2023-03-12T03:12:07;99141.00;;;8.40
12875;BMP180;6505;51.114;13.128;2023-03-12T03:14:36;99148.00;;;8.40
12875;BMP180;6505;51.114;13.128;2023-03-12T03:17:05;99152.00;;;8.40
12875;BMP180;6505;51.114;13.128;2023-03-12T03:19:33;99156.00;;;8.40
12875;BMP180;6505;51.114;13.128;2023-03-12T03:22:01;99163.00;;;8.40
12875;BMP180;6505;51.114;13.128;2023-03-12T03:24:29;99159.00;;;8.40
12875;BMP180;6505;51.114;13.128;2023-03-12T03:26:57;99115.00;;;8.40
12875;BMP180;6505;51.114;13.128;2023-03-12T03:29:25;99178.00;;;8.40
12875;BMP180;6505;51.114;13.128;2023-03-12T03:31:53;99159.00;;;8.40
12875;BMP180;6505;51.114;13.128;2023-03-12T03:34:22;99166.00;;;8.40
12875;BMP180;6505;51.114;13.128;2023-03-12T03:36:50;99168.00;;;8.40
12875;BMP180;6505;51.114;13.128;2023-03-12T03:39:18;99176.00;;;8.40
12875;BMP180;6505;51.114;13.128;2023-03-12T03:41:47;99178.00;;;8.40
12875;BMP180;6505;51.114;13.128;2023-03-12T03:44:19;99186.00;;;8.40
12875;BMP180;6505;51.114;13.128;2023-03-12T03:46:50;99188.00;;;8.40
12875;BMP180;6505;51.114;13.128;2023-03-12T03:49:19;99181.00;;;8.40
12875;BMP180;6505;51.114;13.128;2023-03-12T03:51:48;99184.00;;;8.30
12875;BMP180;6505;51.114;13.128;2023-03-12T03:54:23;99135.00;;;8.30
12875;BMP180;6505;51.114;13.128;2023-03-12T03:56:51;99185.00;;;8.30
12875;BMP180;6505;51.114;13.128;2023-03-12T03:59:19;99188.00;;;8.30
12875;BMP180;6505;51.114;13.128;2023-03-12T04:01:48;99193.00;;;8.30
12875;BMP180;6505;51.114;13.128;2023-03-12T04:04:15;99191.00;;;8.30
12875;BMP180;6505;51.114;13.128;2023-03-12T04:06:44;99186.00;;;8.30
12875;BMP180;6505;51.114;13.128;2023-03-12T04:09:14;99182.00;;;8.30
12875;BMP180;6505;51.114;13.128;2023-03-12T04:11:42;99183.00;;;8.30
12875;BMP180;6505;51.114;13.128;2023-03-12T04:14:12;99181.00;;;8.30
12875;BMP180;6505;51.114;13.128;2023-03-12T04:16:43;99186.00;;;8.30
12875;BMP180;6505;51.114;13.128;2023-03-12T04:19:11;99171.00;;;8.30
12875;BMP180;6505;51.114;13.128;2023-03-12T04:21:39;99167.00;;;8.30
12875;BMP180;6505;51.114;13.128;2023-03-12T04:24:15;99166.00;;;8.30
12875;BMP180;6505;51.114;13.128;2023-03-12T04:26:44;99178.00;;;8.30
12875;BMP180;6505;51.114;13.128;2023-03-12T04:29:14;99165.00;;;8.30
12875;BMP180;6505;51.114;13.128;2023-03-12T04:31:42;99175.00;;;8.30
12875;BMP180;6505;51.114;13.128;2023-03-12T04:34:10;99183.00;;;8.30
12875;BMP180;6505;51.114;13.128;2023-03-12T04:36:41;99188.00;;;8.20
12875;BMP180;6505;51.114;13.128;2023-03-12T04:39:09;99184.00;;;8.30
12875;BMP180;6505;51.114;13.128;2023-03-12T04:41:39;99109.00;;;8.20
12875;BMP180;6505;51.114;13.128;2023-03-12T04:44:10;99197.00;;;8.20
12875;BMP180;6505;51.114;13.128;2023-03-12T04:46:39;99211.00;;;8.20
12875;BMP180;6505;51.114;13.128;2023-03-12T04:49:08;99194.00;;;8.20
12875;BMP180;6505;51.114;13.128;2023-03-12T04:51:38;99197.00;;;8.20
12875;BMP180;6505;51.114;13.128;2023-03-12T04:54:06;99200.00;;;8.20
12875;BMP180;6505;51.114;13.128;2023-03-12T04:56:37;99201.00;;;8.20
12875;BMP180;6505;51.114;13.128;2023-03-12T04:59:05;99201.00;;;8.20
12875;BMP180;6505;51.114;13.128;2023-03-12T05:01:36;99193.00;;;8.20
12875;BMP180;6505;51.114;13.128;2023-03-12T05:04:10;99192.00;;;8.20
12875;BMP180;6505;51.114;13.128;2023-03-12T05:06:38;99196.00;;;8.20
12875;BMP180;6505;51.114;13.128;2023-03-12T05:09:06;99186.00;;;8.20
12875;BMP180;6505;51.114;13.128;2023-03-12T05:11:34;99197.00;;;8.20
12875;BMP180;6505;51.114;13.128;2023-03-12T05:14:09;99202.00;;;8.20
12875;BMP180;6505;51.114;13.128;2023-03-12T05:16:38;99196.00;;;8.00
12875;BMP180;6505;51.114;13.128;2023-03-12T05:19:07;99199.00;;;8.20
12875;BMP180;6505;51.114;13.128;2023-03-12T05:21:35;99203.00;;;8.20
12875;BMP180;6505;51.114;13.128;2023-03-12T05:24:03;99190.00;;;8.10
12875;BMP180;6505;51.114;13.128;2023-03-12T05:26:32;99199.00;;;8.20
12875;BMP180;6505;51.114;13.128;2023-03-12T05:29:10;99204.00;;;8.10
12875;BMP180;6505;51.114;13.128;2023-03-12T05:31:38;99198.00;;;8.10
12875;BMP180;6505;51.114;13.128;2023-03-12T05:34:10;99196.00;;;8.10
12875;BMP180;6505;51.114;13.128;2023-03-12T05:36:39;99199.00;;;8.10
12875;BMP180;6505;51.114;13.128;2023-03-12T05:39:07;99201.00;;;8.10
12875;BMP180;6505;51.114;13.128;2023-03-12T05:41:35;99210.00;;;8.10
12875;BMP180;6505;51.114;13.128;2023-03-12T05:44:12;99211.00;;;8.10
12875;BMP180;6505;51.114;13.128;2023-03-12T05:46:44;99208.00;;;8.10
12875;BMP180;6505;51.114;13.128;2023-03-12T05:49:12;99208.00;;;8.00
12875;BMP180;6505;51.114;13.128;2023-03-12T05:51:40;99200.00;;;8.10
12875;BMP180;6505;51.114;13.128;2023-03-12T05:54:09;99156.00;;;8.10
12875;BMP180;6505;51.114;13.128;2023-03-12T05:56:38;99203.00;;;8.10
12875;BMP180;6505;51.114;13.128;2023-03-12T05:59:07;99194.00;;;8.10
12875;BMP180;6505;51.114;13.128;2023-03-12T06:01:39;99190.00;;;8.10
12875;BMP180;6505;51.114;13.128;2023-03-12T06:04:08;99210.00;;;8.10
12875;BMP180;6505;51.114;13.128;2023-03-12T06:06:37;99148.00;;;8.00
12875;BMP180;6505;51.114;13.128;2023-03-12T06:09:05;99204.00;;;8.10
12875;BMP180;6505;51.114;13.128;2023-03-12T06:11:34;99208.00;;;8.10
12875;BMP180;6505;51.114;13.128;2023-03-12T06:14:03;99212.00;;;8.10
12875;BMP180;6505;51.114;13.128;2023-03-12T06:16:33;99210.00;;;8.10
12875;BMP180;6505;51.114;13.128;2023-03-12T06:19:04;99211.00;;;8.00
12875;BMP180;6505;51.114;13.128;2023-03-12T06:21:35;99206.00;;;8.10
12875;BMP180;6505;51.114;13.128;2023-03-12T06:24:06;99208.00;;;8.10
12875;BMP180;6505;51.114;13.128;2023-03-12T06:26:42;99216.00;;;8.10
12875;BMP180;6505;51.114;13.128;2023-03-12T06:29:10;99215.00;;;8.10
12875;BMP180;6505;51.114;13.128;2023-03-12T06:31:38;99234.00;;;8.10
12875;BMP180;6505;51.114;13.128;2023-03-12T06:34:09;99205.00;;;8.10
12875;BMP180;6505;51.114;13.128;2023-03-12T06:36:37;99223.00;;;8.10
12875;BMP180;6505;51.114;13.128;2023-03-12T06:39:05;99213.00;;;8.10
12875;BMP180;6505;51.114;13.128;2023-03-12T06:41:34;99212.00;;;8.10
12875;BMP180;6505;51.114;13.128;2023-03-12T06:44:03;99216.00;;;8.10
12875;BMP180;6505;51.114;13.128;2023-03-12T06:46:32;99208.00;;;8.10
12875;BMP180;6505;51.114;13.128;2023-03-12T06:49:01;99205.00;;;8.10
12875;BMP180;6505;51.114;13.128;2023-03-12T06:51:30;99210.00;;;8.10
12875;BMP180;6505;51.114;13.128;2023-03-12T06:53:58;99214.00;;;8.10
12875;BMP180;6505;51.114;13.128;2023-03-12T06:56:27;99213.00;;;8.00
12875;BMP180;6505;51.114;13.128;2023-03-12T06:58:55;99207.00;;;8.20
12875;BMP180;6505;51.114;13.128;2023-03-12T07:01:23;99209.00;;;8.00
12875;BMP180;6505;51.114;13.128;2023-03-12T07:03:51;99207.00;;;8.20
12875;BMP180;6505;51.114;13.128;2023-03-12T07:06:21;99210.00;;;8.20
12875;BMP180;6505;51.114;13.128;2023-03-12T07:08:51;99220.00;;;8.20
12875;BMP180;6505;51.114;13.128;2023-03-12T07:11:20;99206.00;;;8.20
12875;BMP180;6505;51.114;13.128;2023-03-12T07:13:48;99209.00;;;8.30
12875;BMP180;6505;51.114;13.128;2023-03-12T07:16:17;99205.00;;;8.30
12875;BMP180;6505;51.114;13.128;2023-03-12T07:18:45;99191.00;;;8.30
12875;BMP180;6505;51.114;13.128;2023-03-12T07:21:14;99224.00;;;8.30
12875;BMP180;6505;51.114;13.128;2023-03-12T07:23:48;99198.00;;;8.30
12875;BMP180;6505;51.114;13.128;2023-03-12T07:26:18;99197.00;;;8.30
12875;BMP180;6505;51.114;13.128;2023-03-12T07:28:46;99210.00;;;8.40
12875;BMP180;6505;51.114;13.128;2023-03-12T07:31:14;99139.00;;;8.40
12875;BMP180;6505;51.114;13.128;2023-03-12T07:33:42;99199.00;;;8.40
12875;BMP180;6505;51.114;13.128;2023-03-12T07:36:10;99203.00;;;8.50
12875;BMP180;6505;51.114;13.128;2023-03-12T07:38:38;99205.00;;;8.50
12875;BMP180;6505;51.114;13.128;2023-03-12T07:41:07;99199.00;;;8.50
12875;BMP180;6505;51.114;13.128;2023-03-12T07:43:36;99205.00;;;8.50
12875;BMP180;6505;51.114;13.128;2023-03-12T07:46:04;99199.00;;;8.60
12875;BMP180;6505;51.114;13.128;2023-03-12T07:48:32;99207.00;;;8.60
12875;BMP180;6505;51.114;13.128;2023-03-12T07:51:00;99209.00;;;8.60
12875;BMP180;6505;51.114;13.128;2023-03-12T07:53:28;99197.00;;;8.70
12875;BMP180;6505;51.114;13.128;2023-03-12T07:55:56;99206.00;;;8.70
12875;BMP180;6505;51.114;13.128;2023-03-12T07:58:25;99199.00;;;8.70
12875;BMP180;6505;51.114;13.128;2023-03-12T08:00:55;99197.00;;;8.70
12875;BMP180;6505;51.114;13.128;2023-03-12T08:03:23;99196.00;;;8.80
12875;BMP180;6505;51.114;13.128;2023-03-12T08:05:57;99193.00;;;8.80
12875;BMP180;6505;51.114;13.128;2023-03-12T08:08:25;99203.00;;;8.80
12875;BMP180;6505;51.114;13.128;2023-03-12T08:10:54;99187.00;;;8.80
12875;BMP180;6505;51.114;13.128;2023-03-12T08:13:23;99189.00;;;8.90
12875;BMP180;6505;51.114;13.128;2023-03-12T08:15:54;99183.00;;;8.90
12875;BMP180;6505;51.114;13.128;2023-03-12T08:18:23;99207.00;;;8.90
12875;BMP180;6505;51.114;13.128;2023-03-12T08:20:52;99204.00;;;9.00
12875;BMP180;6505;51.114;13.128;2023-03-12T08:23:21;99195.00;;;9.00
12875;BMP180;6505;51.114;13.128;2023-03-12T08:25:50;99188.00;;;9.10
12875;BMP180;6505;51.114;13.128;2023-03-12T08:28:20;99140.00;;;9.10
12875;BMP180;6505;51.114;13.128;2023-03-12T08:30:50;99187.00;;;9.10
12875;BMP180;6505;51.114;13.128;2023-03-12T08:33:20;99183.00;;;9.20
12875;BMP180;6505;51.114;13.128;2023-03-12T08:35:49;99196.00;;;9.20
12875;BMP180;6505;51.114;13.128;2023-03-12T08:38:17;99197.00;;;9.30
12875;BMP180;6505;51.114;13.128;2023-03-12T08:40:46;99203.00;;;9.30
12875;BMP180;6505;51.114;13.128;2023-03-12T08:43:13;99197.00;;;9.30
12875;BMP180;6505;51.114;13.128;2023-03-12T08:45:41;99186.00;;;9.40
12875;BMP180;6505;51.114;13.128;2023-03-12T08:48:09;99190.00;;;9.40
12875;BMP180;6505;51.114;13.128;2023-03-12T08:50:39;99192.00;;;9.40
12875;BMP180;6505;51.114;13.128;2023-03-12T08:53:06;99185.00;;;9.50
12875;BMP180;6505;51.114;13.128;2023-03-12T08:55:34;99185.00;;;9.50
12875;BMP180;6505;51.114;13.128;2023-03-12T08:58:02;99161.00;;;9.50
12875;BMP180;6505;51.114;13.128;2023-03-12T09:00:30;99205.00;;;9.50
12875;BMP180;6505;51.114;13.128;2023-03-12T09:02:58;99191.00;;;9.60
12875;BMP180;6505;51.114;13.128;2023-03-12T09:05:26;99195.00;;;9.60
12875;BMP180;6505;51.114;13.128;2023-03-12T09:07:57;99152.00;;;9.60
12875;BMP180;6505;51.114;13.128;2023-03-12T09:10:25;99183.00;;;9.60
12875;BMP180;6505;51.114;13.128;2023-03-12T09:12:56;99177.00;;;9.60
12875;BMP180;6505;51.114;13.128;2023-03-12T09:15:24;99174.00;;;9.70
12875;BMP180;6505;51.114;13.128;2023-03-12T09:17:53;99175.00;;;9.70
12875;BMP180;6505;51.114;13.128;2023-03-12T09:20:23;99194.00;;;9.70
12875;BMP180;6505;51.114;13.128;2023-03-12T09:22:51;99178.00;;;9.80
12875;BMP180;6505;51.114;13.128;2023-03-12T09:25:20;99169.00;;;9.80
12875;BMP180;6505;51.114;13.128;2023-03-12T09:27:49;99167.00;;;9.80
12875;BMP180;6505;51.114;13.128;2023-03-12T09:30:20;99174.00;;;9.80
12875;BMP180;6505;51.114;13.128;2023-03-12T09:32:51;99173.00;;;9.90
12875;BMP180;6505;51.114;13.128;2023-03-12T09:35:19;99173.00;;;9.90
12875;BMP180;6505;51.114;13.128;2023-03-12T09:37:48;99172.00;;;9.90
12875;BMP180;6505;51.114;13.128;2023-03-12T09:40:21;99171.00;;;9.90
12875;BMP180;6505;51.114;13.128;2023-03-12T09:42:55;99166.00;;;9.90
12875;BMP180;6505;51.114;13.128;2023-03-12T09:45:27;99159.00;;;10.00
12875;BMP180;6505;51.114;13.128;2023-03-12T09:47:59;99163.00;;;10.00
12875;BMP180;6505;51.114;13.128;2023-03-12T09:50:31;99115.00;;;10.00
12875;BMP180;6505;51.114;13.128;2023-03-12T09:53:03;99150.00;;;10.00
12875;BMP180;6505;51.114;13.128;2023-03-12T09:55:37;99154.00;;;10.00
12875;BMP180;6505;51.114;13.128;2023-03-12T09:58:12;99150.00;;;10.00
12875;BMP180;6505;51.114;13.128;2023-03-12T10:00:40;99155.00;;;10.10
12875;BMP180;6505;51.114;13.128;2023-03-12T10:03:46;99151.00;;;10.00
12875;BMP180;6505;51.114;13.128;2023-03-12T10:06:19;99145.00;;;10.10
12875;BMP180;6505;51.114;13.128;2023-03-12T10:09:02;99150.00;;;10.10
12875;BMP180;6505;51.114;13.128;2023-03-12T10:11:49;99141.00;;;10.10
12875;BMP180;6505;51.114;13.128;2023-03-12T10:14:41;99143.00;;;10.10
12875;BMP180;6505;51.114;13.128;2023-03-12T10:17:30;99133.00;;;10.20
12875;BMP180;6505;51.114;13.128;2023-03-12T10:20:34;99128.00;;;10.20
12875;BMP180;6505;51.114;13.128;2023-03-12T10:23:11;99128.00;;;10.20
12875;BMP180;6505;51.114;13.128;2023-03-12T10:25:45;99136.00;;;10.20
12875;BMP180;6505;51.114;13.128;2023-03-12T10:28:19;99136.00;;;10.30
12875;BMP180;6505;51.114;13.128;2023-03-12T10:30:53;99132.00;;;10.30
12875;BMP180;6505;51.114;13.128;2023-03-12T10:33:38;99120.00;;;10.30
12875;BMP180;6505;51.114;13.128;2023-03-12T10:36:16;99125.00;;;10.30
12875;BMP180;6505;51.114;13.128;2023-03-12T10:38:45;99126.00;;;10.40
12875;BMP180;6505;51.114;13.128;2023-03-12T10:41:18;99130.00;;;10.40
12875;BMP180;6505;51.114;13.128;2023-03-12T10:43:48;99115.00;;;10.40
12875;BMP180;6505;51.114;13.128;2023-03-12T10:46:44;99112.00;;;10.40
12875;BMP180;6505;51.114;13.128;2023-03-12T10:49:29;99117.00;;;10.50
12875;BMP180;6505;51.114;13.128;2023-03-12T10:52:02;99120.00;;;10.50
12875;BMP180;6505;51.114;13.128;2023-03-12T10:54:35;99112.00;;;10.50
12875;BMP180;6505;51.114;13.128;2023-03-12T10:57:04;99113.00;;;10.60
12875;BMP180;6505;51.114;13.128;2023-03-12T10:59:36;99118.00;;;10.60
12875;BMP180;6505;51.114;13.128;2023-03-12T11:02:31;99108.00;;;10.60
12875;BMP180;6505;51.114;13.128;2023-03-12T11:05:01;99115.00;;;10.60
12875;BMP180;6505;51.114;13.128;2023-03-12T11:07:31;99102.00;;;10.70
12875;BMP180;6505;51.114;13.128;2023-03-12T11:10:18;99110.00;;;10.70
12875;BMP180;6505;51.114;13.128;2023-03-12T11:13:00;99101.00;;;10.70
12875;BMP180;6505;51.114;13.128;2023-03-12T11:15:38;99113.00;;;10.70
12875;BMP180;6505;51.114;13.128;2023-03-12T11:18:34;99110.00;;;10.50
12875;BMP180;6505;51.114;13.128;2023-03-12T11:21:17;99059.00;;;10.70
12875;BMP180;6505;51.114;13.128;2023-03-12T11:24:05;99084.00;;;10.80
12875;BMP180;6505;51.114;13.128;2023-03-12T11:26:42;99079.00;;;10.80
12875;BMP180;6505;51.114;13.128;2023-03-12T11:29:23;99083.00;;;10.80
12875;BMP180;6505;51.114;13.128;2023-03-12T11:32:02;99062.00;;;10.80
12875;BMP180;6505;51.114;13.128;2023-03-12T11:34:34;99061.00;;;10.90
12875;BMP180;6505;51.114;13.128;2023-03-12T11:37:22;99062.00;;;10.90
12875;BMP180;6505;51.114;13.128;2023-03-12T11:40:07;99052.00;;;10.90
12875;BMP180;6505;51.114;13.128;2023-03-12T11:43:00;99044.00;;;10.90
12875;BMP180;6505;51.114;13.128;2023-03-12T11:45:45;99036.00;;;10.90
12875;BMP180;6505;51.114;13.128;2023-03-12T11:48:24;99029.00;;;11.00
12875;BMP180;6505;51.114;13.128;2023-03-12T11:51:12;99026.00;;;11.00
12875;BMP180;6505;51.114;13.128;2023-03-12T11:54:00;98978.00;;;11.00
12875;BMP180;6505;51.114;13.128;2023-03-12T11:56:38;99022.00;;;11.00
12875;BMP180;6505;51.114;13.128;2023-03-12T11:59:34;99023.00;;;11.00
12875;BMP180;6505;51.114;13.128;2023-03-12T12:02:26;99026.00;;;11.00
12875;BMP180;6505;51.114;13.128;2023-03-12T12:05:21;99019.00;;;11.00
12875;BMP180;6505;51.114;13.128;2023-03-12T12:08:08;99016.00;;;11.10
12875;BMP180;6505;51.114;13.128;2023-03-12T12:10:50;99007.00;;;11.10
12875;BMP180;6505;51.114;13.128;2023-03-12T12:13:31;99007.00;;;11.10
12875;BMP180;6505;51.114;13.128;2023-03-12T12:16:28;99007.00;;;11.10
12875;BMP180;6505;51.114;13.128;2023-03-12T12:19:15;98981.00;;;11.10
12875;BMP180;6505;51.114;13.128;2023-03-12T12:22:07;98965.00;;;11.20
12875;BMP180;6505;51.114;13.128;2023-03-12T12:25:00;98932.00;;;11.20
12875;BMP180;6505;51.114;13.128;2023-03-12T12:27:41;98970.00;;;11.20
12875;BMP180;6505;51.114;13.128;2023-03-12T12:30:21;98970.00;;;11.20
12875;BMP180;6505;51.114;13.128;2023-03-12T12:33:08;98959.00;;;11.30
12875;BMP180;6505;51.114;13.128;2023-03-12T12:35:42;98953.00;;;11.30
12875;BMP180;6505;51.114;13.128;2023-03-12T12:38:19;98948.00;;;11.30
12875;BMP180;6505;51.114;13.128;2023-03-12T12:40:53;98943.00;;;11.30
12875;BMP180;6505;51.114;13.128;2023-03-12T12:43:26;98932.00;;;11.40
12875;BMP180;6505;51.114;13.128;2023-03-12T12:46:00;98937.00;;;11.40
12875;BMP180;6505;51.114;13.128;2023-03-12T12:48:34;98945.00;;;11.40
12875;BMP180;6505;51.114;13.128;2023-03-12T12:51:05;98927.00;;;11.40
12875;BMP180;6505;51.114;13.128;2023-03-12T12:53:44;98918.00;;;11.30
12875;BMP180;6505;51.114;13.128;2023-03-12T12:56:22;98942.00;;;11.50
12875;BMP180;6505;51.114;13.128;2023-03-12T12:59:04;98922.00;;;11.50
12875;BMP180;6505;51.114;13.128;2023-03-12T13:01:35;98924.00;;;11.50
12875;BMP180;6505;51.114;13.128;2023-03-12T13:04:09;98931.00;;;11.50
12875;BMP180;6505;51.114;13.128;2023-03-12T13:07:27;98936.00;;;11.50
12875;BMP180;6505;51.114;13.128;2023-03-12T13:09:56;98932.00;;;11.60
12875;BMP180;6505;51.114;13.128;2023-03-12T13:12:30;98938.00;;;11.60
12875;BMP180;6505;51.114;13.128;2023-03-12T13:15:00;98940.00;;;11.60
12875;BMP180;6505;51.114;13.128;2023-03-12T13:17:33;98925.00;;;11.50
12875;BMP180;6505;51.114;13.128;2023-03-12T13:20:15;98931.00;;;11.60
12875;BMP180;6505;51.114;13.128;2023-03-12T13:23:04;98917.00;;;11.60
12875;BMP180;6505;51.114;13.128;2023-03-12T13:25:56;98932.00;;;11.70
12875;BMP180;6505;51.114;13.128;2023-03-12T13:28:36;98928.00;;;11.70
12875;BMP180;6505;51.114;13.128;2023-03-12T13:31:37;98866.00;;;11.70
12875;BMP180;6505;51.114;13.128;2023-03-12T13:34:51;98929.00;;;11.70
12875;BMP180;6505;51.114;13.128;2023-03-12T13:37:58;98928.00;;;11.70
12875;BMP180;6505;51.114;13.128;2023-03-12T13:40:57;98936.00;;;11.70
12875;BMP180;6505;51.114;13.128;2023-03-12T13:43:51;98932.00;;;11.70
12875;BMP180;6505;51.114;13.128;2023-03-12T13:46:43;98942.00;;;11.70
12875;BMP180;6505;51.114;13.128;2023-03-12T13:49:17;98950.00;;;11.70
12875;BMP180;6505;51.114;13.128;2023-03-12T13:51:57;98952.00;;;11.70
12875;BMP180;6505;51.114;13.128;2023-03-12T13:54:33;98945.00;;;11.80
12875;BMP180;6505;51.114;13.128;2023-03-12T13:57:19;98937.00;;;11.80
12875;BMP180;6505;51.114;13.128;2023-03-12T13:59:51;98937.00;;;11.80
12875;BMP180;6505;51.114;13.128;2023-03-12T14:02:25;98938.00;;;11.90
12875;BMP180;6505;51.114;13.128;2023-03-12T14:05:01;98954.00;;;11.90
12875;BMP180;6505;51.114;13.128;2023-03-12T14:07:53;98939.00;;;11.80
12875;BMP180;6505;51.114;13.128;2023-03-12T14:10:34;98922.00;;;11.90
12875;BMP180;6505;51.114;13.128;2023-03-12T14:13:25;98924.00;;;11.90
12875;BMP180;6505;51.114;13.128;2023-03-12T14:16:01;98929.00;;;11.90
12875;BMP180;6505;51.114;13.128;2023-03-12T14:18:34;98935.00;;;11.90
12875;BMP180;6505;51.114;13.128;2023-03-12T14:21:08;98935.00;;;11.90
12875;BMP180;6505;51.114;13.128;2023-03-12T14:23:48;98947.00;;;11.70
12875;BMP180;6505;51.114;13.128;2023-03-12T14:26:23;98915.00;;;11.90
12875;BMP180;6505;51.114;13.128;2023-03-12T14:29:00;98914.00;;;11.90
12875;BMP180;6505;51.114;13.128;2023-03-12T14:31:30;98908.00;;;11.90
12875;BMP180;6505;51.114;13.128;2023-03-12T14:34:03;98901.00;;;11.90
12875;BMP180;6505;51.114;13.128;2023-03-12T14:36:40;98900.00;;;11.90
12875;BMP180;6505;51.114;13.128;2023-03-12T14:39:22;98880.00;;;11.90
12875;BMP180;6505;51.114;13.128;2023-03-12T14:41:58;98868.00;;;11.90
12875;BMP180;6505;51.114;13.128;2023-03-12T14:44:30;98870.00;;;11.90
12875;BMP180;6505;51.114;13.128;2023-03-12T14:47:01;98872.00;;;11.90
12875;BMP180;6505;51.114;13.128;2023-03-12T14:49:30;98837.00;;;11.90
12875;BMP180;6505;51.114;13.128;2023-03-12T14:51:58;98891.00;;;12.00